Waar ligt Torre e Solar da Camoeira in Portugal?

Torre e Solar da Camoeira is gevestigd in de regio Evora in Portugal!

Zoek de plaatsnaam:

Torre Larderia, Torrente Subissone, Torrenova, Torre d'Ayala, Torrenieri

Hier ziet u waar Torre e Solar da Camoeira op de kaart ligt.
Voor een indruk van hoe het er nu buiten uitziet staan onderaan wat plaatjes van de omgeving vanuit online web camera's.
U ziet ook de afstanden tot de belangrijkste plaatsen in de regio en tot plaatsen in de rest van Portugal.

Alle plaatsen in de wereld die heten.

new

Waar ligt Torre e Solar da Camoeira op de kaart?


Webcams vlakbij Torre e Solar da Camoeira

Comporta: Distrito de - Praia do Carvalhal°.


Comporta: Distrito de - Praia do Carvalhal° - Overdag
Recent
Comporta: Distrito de - Praia do Carvalhal° - Recent

Sines Municipality: Praia de Sao Torpes.


Sines Municipality: Praia de Sao Torpes - Overdag
Recent
Sines Municipality: Praia de Sao Torpes - Recent

Benavente > North-East: AIrport, METAR: BENAV 180005Z 36004KT 17/14 Q1015.


Benavente > North-East: AIrport, METAR: BENAV 180005Z 36004KT 17/14 Q1015 - Overdag
Recent
Benavente > North-East: AIrport, METAR: BENAV 180005Z 36004KT 17/14 Q1015 - Recent

Webcams provided by webcams.travel

Afstanden

Waar ligt Torre e Solar da Camoeira ten opzichte van andere plaatsen?

Top 10 plaatsen in Evora en afstand vanaf Torre e Solar da Camoeira.

Plaats#Inwonerskmmijl
Évora145851149
Montemor-o-Novo2128543220
Vendas Novas3112485031
Estremoz493495534
Reguengos de Monsaraz572173723
Redondo658454226
Vila Viçosa754846037
Borba845866037
Adaval9-3522
Agua d' Alte10-4528

Top 10 plaatsen in Portugal en afstand vanaf Torre e Solar da Camoeira.

Plaats # Inwonerskmmijl
Lisbon151779810666
Porto2249630306190
Amadora317885611773
Braga4121393348216
Setúbal51171098251
Coimbra6106580200124
Queluz710339811773
Funchal8980411035643
Vila Nova de Gaia970810304189
Loures106623011471

Reisadvies Portugal

Advies en informatie van het ministerie van Buitenlandse Zaken over (zaken)reizen en veiligheidsrisico’s in Portugal via rijksoverheid.nl.

Met een reisadvies kunnen Nederlandse reizigers zich beter voorbereiden op veiligheidsrisico’s tijdens een buitenlands vakantie of verblijf. Wees geinformerd over de risico's op ontvoeringen, gewapende overvallen, bomaanslagen, natuurrampen of oorlogsgeweld. Buitenlandse Zaken vermeldt in een reisadvies bijvoorbeeld welke gebieden in Portugalo onveilig zijn, roept reizigers op tot waakzaamheid of ontraadt reizen.

Reisadvies Portugal



Reisinformatie Portugal

Informatie over residocumenten, aanvragen van een visa en de kosten hiervan. Contactinformatie van de ambassade in Portugal. Informatie over reisverzekeringen.

Reisinformatie Portugal